createdAt,value
2018-11-23T00:01:11.956Z,100339.14
2018-11-23T00:03:44.985Z,100337.58
2018-11-23T00:06:17.834Z,100335.66
2018-11-23T00:08:51.208Z,100343.59
2018-11-23T00:11:25.310Z,100340.02
2018-11-23T00:13:58.146Z,100340.18
2018-11-23T00:16:31.940Z,100347.02
2018-11-23T00:19:05.792Z,100350.69
2018-11-23T00:21:38.634Z,100348.82
2018-11-23T00:24:11.981Z,100346.97
2018-11-23T00:26:45.566Z,100350.18
2018-11-23T00:29:20.459Z,100349.25
2018-11-23T00:31:54.207Z,100354.88
2018-11-23T00:34:27.148Z,100350.83
2018-11-23T00:37:01.043Z,100353.11
2018-11-23T00:39:34.348Z,100351.39
2018-11-23T00:42:07.586Z,100352.84
2018-11-23T00:44:41.672Z,100351.20
2018-11-23T00:47:16.468Z,100355.48
2018-11-23T00:49:50.229Z,100355.88
2018-11-23T00:52:23.106Z,100355.15
2018-11-23T00:54:56.831Z,100354.28
2018-11-23T00:57:30.061Z,100355.20
2018-11-23T01:00:05.623Z,100361.30
2018-11-23T01:02:38.731Z,100362.13
2018-11-23T01:05:14.132Z,100358.36
2018-11-23T01:07:48.057Z,100354.78
2018-11-23T01:10:22.929Z,100351.31
2018-11-23T01:12:56.641Z,100354.05
2018-11-23T01:15:30.052Z,100354.79
2018-11-23T01:18:03.773Z,100359.07
2018-11-23T01:20:38.731Z,100363.55
2018-11-23T01:23:12.047Z,100369.55
2018-11-23T01:25:46.076Z,100369.22
2018-11-23T01:28:18.772Z,100368.11
2018-11-23T01:30:51.933Z,100363.32
2018-11-23T01:33:25.150Z,100365.53
2018-11-23T01:35:58.044Z,100365.20
2018-11-23T01:38:30.860Z,100369.27
2018-11-23T01:41:06.515Z,100364.50
2018-11-23T01:43:39.417Z,100358.45
2018-11-23T01:46:12.465Z,100355.44
2018-11-23T01:48:45.866Z,100356.30
2018-11-23T01:51:18.802Z,100361.80
2018-11-23T01:53:52.006Z,100355.30
2018-11-23T01:56:26.364Z,100356.73
2018-11-23T01:58:59.181Z,100353.95
2018-11-23T02:01:32.556Z,100357.75
2018-11-23T02:04:06.021Z,100353.36
2018-11-23T02:06:38.969Z,100358.31
2018-11-23T02:09:11.747Z,100351.88
2018-11-23T02:11:45.191Z,100357.84
2018-11-23T02:14:17.916Z,100352.59
2018-11-23T02:16:50.903Z,100361.17
2018-11-23T02:19:24.311Z,100356.03
2018-11-23T02:21:57.307Z,100355.63
2018-11-23T02:24:30.050Z,100352.80
2018-11-23T02:27:04.576Z,100355.33
2018-11-23T02:29:37.350Z,100358.80
2018-11-23T02:32:10.241Z,100357.06
2018-11-23T02:34:44.004Z,100353.75
2018-11-23T02:37:18.069Z,100356.08
2018-11-23T02:39:50.820Z,100351.16
2018-11-23T02:42:24.240Z,100350.61
2018-11-23T02:44:57.055Z,100351.73
2018-11-23T02:47:30.327Z,100356.77
2018-11-23T02:50:06.961Z,100354.74
2018-11-23T02:52:40.545Z,100353.62
2018-11-23T02:55:14.503Z,100352.14
2018-11-23T02:57:47.853Z,100344.55
2018-11-23T03:00:22.063Z,100346.68
2018-11-23T03:02:54.844Z,100347.25
2018-11-23T03:05:29.196Z,100343.58
2018-11-23T03:08:02.092Z,100338.42
2018-11-23T03:10:34.881Z,100341.63
2018-11-23T03:13:08.300Z,100346.47
2018-11-23T03:15:41.432Z,100346.66
2018-11-23T03:18:14.183Z,100345.17
2018-11-23T03:20:47.411Z,100341.92
2018-11-23T03:23:20.181Z,100340.28
2018-11-23T03:25:53.017Z,100340.27
2018-11-23T03:28:27.042Z,100344.26
2018-11-23T03:30:59.924Z,100341.45
2018-11-23T03:33:32.896Z,100336.72
2018-11-23T03:36:06.601Z,100328.58
2018-11-23T03:38:39.489Z,100324.83
2018-11-23T03:41:12.336Z,100324.03
2018-11-23T03:43:46.082Z,100324.25
2018-11-23T03:46:18.955Z,100322.06
2018-11-23T03:48:51.981Z,100327.25
2018-11-23T03:51:26.348Z,100328.08
2018-11-23T03:53:59.198Z,100328.52
2018-11-23T03:56:32.236Z,100329.65
2018-11-23T03:59:06.038Z,100334.61
2018-11-23T04:01:38.848Z,100337.30
2018-11-23T04:04:11.710Z,100334.68
2018-11-23T04:06:45.369Z,100332.56
2018-11-23T04:09:18.513Z,100330.69
2018-11-23T04:11:51.209Z,100321.20
2018-11-23T04:14:24.813Z,100318.23
2018-11-23T04:16:57.631Z,100320.30
2018-11-23T04:19:30.558Z,100321.91
2018-11-23T04:22:04.284Z,100324.05
2018-11-23T04:24:37.790Z,100324.76
2018-11-23T04:27:10.587Z,100329.34
2018-11-23T04:29:44.024Z,100322.98
2018-11-23T04:32:17.127Z,100330.88
2018-11-23T04:34:50.012Z,100326.12
2018-11-23T04:37:23.436Z,100323.22
2018-11-23T04:39:56.398Z,100322.47
2018-11-23T04:42:29.182Z,100323.89
2018-11-23T04:45:04.852Z,100323.56
2018-11-23T04:47:38.508Z,100322.39
2018-11-23T04:50:13.748Z,100318.70
2018-11-23T04:52:47.094Z,100321.27
2018-11-23T04:55:20.009Z,100314.42
2018-11-23T04:57:53.778Z,100312.15
2018-11-23T05:00:27.456Z,100308.37
2018-11-23T05:03:01.181Z,100297.20
2018-11-23T05:05:34.381Z,100296.52
2018-11-23T05:08:09.310Z,100296.72
2018-11-23T05:10:42.276Z,100300.34
2018-11-23T05:13:15.045Z,100307.98
2018-11-23T05:15:48.424Z,100309.42
2018-11-23T05:18:21.167Z,100308.57
2018-11-23T05:20:54.586Z,100304.27
2018-11-23T05:23:28.144Z,100317.17
2018-11-23T05:26:01.036Z,100318.69
2018-11-23T05:28:33.788Z,100319.97
2018-11-23T05:31:09.245Z,100320.55
2018-11-23T05:33:41.985Z,100314.61
2018-11-23T05:36:15.484Z,100313.11
2018-11-23T05:38:50.357Z,100312.27
2018-11-23T05:41:24.288Z,100313.90
2018-11-23T05:43:57.137Z,100317.19
2018-11-23T05:46:32.120Z,100316.57
2018-11-23T05:49:08.117Z,100310.84
2018-11-23T05:51:40.938Z,100310.09
2018-11-23T05:54:14.500Z,100306.11
2018-11-23T05:56:47.491Z,100304.17
2018-11-23T05:59:20.285Z,100294.84
2018-11-23T06:01:53.836Z,100291.50
2018-11-23T06:04:26.654Z,100283.76
2018-11-23T06:06:59.415Z,100283.53
2018-11-23T06:09:32.395Z,100280.09
2018-11-23T06:12:06.340Z,100282.47
2018-11-23T06:14:39.573Z,100271.78
2018-11-23T06:17:14.261Z,100281.69
2018-11-23T06:19:47.465Z,100289.03
2018-11-23T06:22:20.472Z,100287.45
2018-11-23T06:24:54.419Z,100288.81
2018-11-23T06:27:28.222Z,100293.78
2018-11-23T06:30:00.996Z,100291.73
2018-11-23T06:32:57.817Z,100290.84
2018-11-23T06:35:31.169Z,100295.33
2018-11-23T06:38:04.839Z,100290.70
2018-11-23T06:40:37.696Z,100287.67
2018-11-23T06:43:10.621Z,100284.92
2018-11-23T06:45:44.393Z,100283.38
2018-11-23T06:48:19.951Z,100283.64
2018-11-23T06:50:53.849Z,100281.90
2018-11-23T06:53:27.166Z,100275.39
2018-11-23T06:56:03.452Z,100289.02
2018-11-23T06:58:36.474Z,100282.96
2018-11-23T07:01:10.901Z,100281.60
2018-11-23T07:03:46.810Z,100283.98
2018-11-23T07:06:19.730Z,100286.89
2018-11-23T07:08:54.583Z,100291.35
2018-11-23T07:11:27.504Z,100297.03
2018-11-23T07:14:03.995Z,100302.55
2018-11-23T07:16:37.612Z,100309.48
2018-11-23T07:19:10.616Z,100317.30
2018-11-23T07:21:43.345Z,100316.13
2018-11-23T07:24:16.473Z,100314.02
2018-11-23T07:26:49.668Z,100315.50
2018-11-23T07:29:22.626Z,100313.24
2018-11-23T07:31:56.884Z,100314.55
2018-11-23T07:34:30.257Z,100313.66
2018-11-23T07:37:03.601Z,100316.05
2018-11-23T07:39:58.892Z,100316.69
2018-11-23T07:42:33.008Z,100317.49
2018-11-23T07:45:08.765Z,100315.50
2018-11-23T07:47:41.581Z,100313.83
2018-11-23T07:50:14.932Z,100309.33
2018-11-23T07:52:48.157Z,100307.38
2018-11-23T07:55:21.076Z,100300.26
2018-11-23T07:57:54.545Z,100295.75
2018-11-23T08:00:28.052Z,100289.28
2018-11-23T08:03:01.781Z,100295.02
2018-11-23T08:05:35.629Z,100301.73
2018-11-23T08:08:09.597Z,100303.97
2018-11-23T08:10:41.903Z,100303.89
2018-11-23T08:13:14.911Z,100308.66
2018-11-23T08:15:48.313Z,100307.42
2018-11-23T08:18:23.172Z,100308.86
2018-11-23T08:21:00.703Z,100306.38
2018-11-23T08:23:37.430Z,100303.59
2018-11-23T08:26:12.582Z,100298.73
2018-11-23T08:28:47.101Z,100300.83
2018-11-23T08:31:20.515Z,100299.19
2018-11-23T08:33:54.574Z,100301.86
2018-11-23T08:36:27.711Z,100304.20
2018-11-23T08:39:04.685Z,100301.25
2018-11-23T08:41:39.189Z,100297.64
2018-11-23T08:44:12.420Z,100303.22
2018-11-23T08:46:46.102Z,100300.73
2018-11-23T08:49:20.377Z,100302.08
2018-11-23T08:51:53.952Z,100294.98
2018-11-23T08:54:26.745Z,100299.62
2018-11-23T08:57:02.264Z,100301.38
2018-11-23T08:59:35.406Z,100296.50
2018-11-23T09:02:08.918Z,100292.88
2018-11-23T09:04:41.825Z,100295.01
2018-11-23T09:07:16.285Z,100296.36
2018-11-23T09:09:50.838Z,100293.34
2018-11-23T09:12:25.308Z,100292.61
2018-11-23T09:15:10.887Z,100288.26
2018-11-23T09:17:47.797Z,100285.20
2018-11-23T09:20:22.867Z,100284.33
2018-11-23T09:22:56.486Z,100285.34
2018-11-23T09:25:30.317Z,100284.14
2018-11-23T09:28:04.012Z,100287.55
2018-11-23T09:30:38.358Z,100282.80
2018-11-23T09:33:12.797Z,100287.67
2018-11-23T09:35:52.903Z,100282.50
2018-11-23T09:38:27.844Z,100283.81
2018-11-23T09:41:03.378Z,100276.77
2018-11-23T09:43:38.407Z,100276.68
2018-11-23T09:46:14.469Z,100278.34
2018-11-23T09:48:47.816Z,100272.59
2018-11-23T09:51:22.424Z,100273.70
2018-11-23T09:53:56.812Z,100269.19
2018-11-23T09:56:30.507Z,100268.33
2018-11-23T09:59:05.809Z,100269.27
2018-11-23T10:01:39.400Z,100264.19
2018-11-23T10:04:12.807Z,100258.40
2018-11-23T10:06:47.931Z,100252.20
2018-11-23T10:09:22.978Z,100245.36
2018-11-23T10:11:57.420Z,100241.66
2018-11-23T10:14:30.201Z,100239.02
2018-11-23T10:17:03.945Z,100239.88
2018-11-23T10:19:39.119Z,100233.55
2018-11-23T10:22:12.214Z,100228.23
2018-11-23T10:24:46.701Z,100232.31
2018-11-23T10:27:21.321Z,100232.75
2018-11-23T10:29:55.389Z,100233.86
2018-11-23T10:32:30.361Z,100234.86
2018-11-23T10:35:03.259Z,100228.00
2018-11-23T10:37:38.290Z,100229.77
2018-11-23T10:40:17.261Z,100217.60
2018-11-23T10:42:51.201Z,100212.92
2018-11-23T10:45:26.146Z,100203.24
2018-11-23T10:48:03.857Z,100200.45
2018-11-23T10:50:40.276Z,100195.53
2018-11-23T10:53:15.792Z,100196.16
2018-11-23T10:55:49.148Z,100193.95
2018-11-23T10:58:22.394Z,100193.06
2018-11-23T11:01:01.526Z,100194.29
2018-11-23T11:03:58.881Z,100187.84
2018-11-23T11:06:40.554Z,100187.98
2018-11-23T11:09:14.673Z,100183.17
2018-11-23T11:11:48.160Z,100178.73
2018-11-23T11:14:21.425Z,100168.91
2018-11-23T11:16:55.267Z,100161.70
2018-11-23T11:19:29.523Z,100152.64
2018-11-23T11:22:03.606Z,100154.31
2018-11-23T11:24:36.937Z,100149.81
2018-11-23T11:27:10.466Z,100151.68
2018-11-23T11:29:43.717Z,100149.81
2018-11-23T11:32:16.528Z,100148.42
2018-11-23T11:34:51.778Z,100143.44
2018-11-23T11:37:25.358Z,100138.06
2018-11-23T11:39:59.717Z,100132.91
2018-11-23T11:42:34.853Z,100129.22
2018-11-23T11:45:14.937Z,100123.06
2018-11-23T11:47:49.439Z,100120.73
2018-11-23T11:50:22.700Z,100115.13
2018-11-23T11:52:56.727Z,100111.98
2018-11-23T11:55:31.922Z,100109.97
2018-11-23T11:58:05.680Z,100108.90
2018-11-23T12:00:39.813Z,100101.14
2018-11-23T12:03:14.713Z,100101.47
2018-11-23T12:05:49.199Z,100107.53
2018-11-23T12:08:24.255Z,100098.61
2018-11-23T12:10:57.964Z,100096.58
2018-11-23T12:13:34.583Z,100091.52
2018-11-23T12:16:08.081Z,100084.43
2018-11-23T12:18:41.781Z,100077.61
2018-11-23T12:21:14.537Z,100074.46
2018-11-23T12:23:48.447Z,100067.36
2018-11-23T12:26:22.977Z,100068.84
2018-11-23T12:28:57.421Z,100063.83
2018-11-23T12:31:31.551Z,100068.17
2018-11-23T12:34:05.473Z,100068.94
2018-11-23T12:36:39.708Z,100069.17
2018-11-23T12:39:12.647Z,100064.41
2018-11-23T12:41:51.556Z,100067.25
2018-11-23T12:44:26.481Z,100067.25
2018-11-23T12:47:00.764Z,100063.23
2018-11-23T12:49:33.677Z,100060.00
2018-11-23T12:52:07.704Z,100063.27
2018-11-23T12:54:41.324Z,100057.16
2018-11-23T12:57:14.509Z,100053.56
2018-11-23T12:59:50.735Z,100055.08
2018-11-23T13:02:26.255Z,100050.83
2018-11-23T13:04:59.268Z,100048.84
2018-11-23T13:07:32.526Z,100044.05
2018-11-23T13:10:09.275Z,100045.02
2018-11-23T13:12:44.420Z,100040.68
2018-11-23T13:15:17.249Z,100037.28
2018-11-23T13:17:50.988Z,100036.82
2018-11-23T13:20:25.847Z,100034.84
2018-11-23T13:22:59.193Z,100028.95
2018-11-23T13:25:33.108Z,100023.66
2018-11-23T13:28:06.717Z,100020.67
2018-11-23T13:30:41.783Z,100020.27
2018-11-23T13:33:16.685Z,100016.75
2018-11-23T13:35:53.364Z,100017.52
2018-11-23T13:38:28.218Z,100012.50
2018-11-23T13:41:01.561Z,100011.16
2018-11-23T13:43:35.770Z,100009.24
2018-11-23T13:46:09.860Z,100000.36
2018-11-23T13:48:43.731Z,100000.80
2018-11-23T13:51:17.509Z,99996.56
2018-11-23T13:53:51.576Z,99998.78
2018-11-23T13:56:25.726Z,99995.07
2018-11-23T13:58:59.205Z,99994.39
2018-11-23T14:01:34.458Z,99992.69
2018-11-23T14:04:08.369Z,99990.77
2018-11-23T14:06:44.107Z,99985.73
2018-11-23T14:09:18.108Z,99986.01
2018-11-23T14:11:51.333Z,99982.86
2018-11-23T14:14:25.815Z,99980.70
2018-11-23T14:17:01.934Z,99977.18
2018-11-23T14:19:39.503Z,99975.37
2018-11-23T14:22:15.304Z,99971.60
2018-11-23T14:24:50.593Z,99967.97
2018-11-23T14:27:26.596Z,99963.73
2018-11-23T14:30:03.646Z,99963.77
2018-11-23T14:32:39.844Z,99963.08
2018-11-23T14:35:14.980Z,99952.34
2018-11-23T14:37:53.098Z,99954.55
2018-11-23T14:40:27.046Z,99950.98
2018-11-23T14:43:00.537Z,99942.00
2018-11-23T14:45:34.749Z,99945.25
2018-11-23T14:48:09.196Z,99940.85
2018-11-23T14:50:49.756Z,99938.55
2018-11-23T14:53:22.839Z,99937.58
2018-11-23T14:55:57.433Z,99942.74
2018-11-23T14:58:30.272Z,99940.75
2018-11-23T15:01:05.377Z,99938.27
2018-11-23T15:03:38.862Z,99943.67
2018-11-23T15:06:13.413Z,99948.11
2018-11-23T15:08:48.542Z,99951.62
2018-11-23T15:11:22.481Z,99952.97
2018-11-23T15:13:56.079Z,99952.44
2018-11-23T15:16:31.633Z,99950.78
2018-11-23T15:19:04.989Z,99949.77
2018-11-23T15:21:43.803Z,99951.54
2018-11-23T15:24:21.550Z,99954.93
2018-11-23T15:26:55.029Z,99958.05
2018-11-23T15:29:28.352Z,99954.50
2018-11-23T15:32:01.574Z,99955.59
2018-11-23T15:34:35.819Z,99956.73
2018-11-23T15:37:10.567Z,99958.31
2018-11-23T15:39:43.476Z,99955.58
2018-11-23T15:42:18.501Z,99953.82
2018-11-23T15:44:53.863Z,99950.11
2018-11-23T15:47:28.037Z,99950.52
2018-11-23T15:50:00.887Z,99943.20
2018-11-23T15:52:38.245Z,99940.36
2018-11-23T15:55:16.808Z,99947.90
2018-11-23T15:57:54.821Z,99948.02
2018-11-23T16:00:37.383Z,99947.72
2018-11-23T16:03:13.808Z,99941.97
2018-11-23T16:05:48.947Z,99939.80
2018-11-23T16:08:27.566Z,99943.13
2018-11-23T16:11:01.724Z,99940.74
2018-11-23T16:13:43.359Z,99939.63
2018-11-23T16:16:18.970Z,99937.97
2018-11-23T16:18:57.622Z,99938.88
2018-11-23T16:21:32.960Z,99937.48
2018-11-23T16:24:07.219Z,99941.61
2018-11-23T16:26:42.317Z,99944.32
2018-11-23T16:29:16.720Z,99940.98
2018-11-23T16:31:51.591Z,99937.06
2018-11-23T16:34:25.318Z,99935.98
2018-11-23T16:37:01.040Z,99941.63
2018-11-23T16:39:35.572Z,99940.46
2018-11-23T16:42:09.678Z,99936.77
2018-11-23T16:44:44.283Z,99934.77
2018-11-23T16:47:20.312Z,99931.84
2018-11-23T16:49:54.747Z,99924.16
2018-11-23T16:52:28.664Z,99926.33
2018-11-23T16:55:09.574Z,99930.20
2018-11-23T16:57:46.234Z,99934.61
2018-11-23T17:00:23.784Z,99935.27
2018-11-23T17:03:00.089Z,99935.53
2018-11-23T17:05:42.671Z,99943.84
2018-11-23T17:08:21.249Z,99941.27
2018-11-23T17:11:01.549Z,99940.56
2018-11-23T17:13:35.826Z,99935.55
2018-11-23T17:16:10.457Z,99931.75
2018-11-23T17:18:48.800Z,99930.89
2018-11-23T17:21:26.546Z,99926.09
2018-11-23T17:24:05.392Z,99934.58
2018-11-23T17:26:38.521Z,99931.61
2018-11-23T17:29:14.421Z,99935.64
2018-11-23T17:31:49.593Z,99936.59
2018-11-23T17:34:23.590Z,99937.77
2018-11-23T17:36:57.083Z,99937.11
2018-11-23T17:39:31.717Z,99935.18
2018-11-23T17:42:10.007Z,99934.34
2018-11-23T17:44:45.026Z,99933.44
2018-11-23T17:47:21.294Z,99930.66
2018-11-23T17:49:57.523Z,99932.98
2018-11-23T17:52:30.898Z,99933.47
2018-11-23T17:55:08.416Z,99930.84
2018-11-23T17:57:42.781Z,99928.90
2018-11-23T18:00:22.167Z,99933.34
2018-11-23T18:02:56.716Z,99928.37
2018-11-23T18:05:35.343Z,99922.53
2018-11-23T18:08:11.626Z,99917.91
2018-11-23T18:10:54.159Z,99914.02
2018-11-23T18:13:29.674Z,99904.44
2018-11-23T18:16:06.257Z,99899.56
2018-11-23T18:18:39.951Z,99897.10
2018-11-23T18:21:15.296Z,99894.11
2018-11-23T18:23:52.134Z,99882.30
2018-11-23T18:26:27.881Z,99881.56
2018-11-23T18:29:02.839Z,99884.83
2018-11-23T18:31:42.044Z,99876.58
2018-11-23T18:34:16.631Z,99874.05
2018-11-23T18:36:51.441Z,99866.78
2018-11-23T18:39:27.608Z,99858.11
2018-11-23T18:42:03.754Z,99851.44
2018-11-23T18:45:21.081Z,99853.23
2018-11-23T18:48:07.253Z,99844.83
2018-11-23T18:50:41.212Z,99846.55
2018-11-23T18:53:16.135Z,99836.62
2018-11-23T18:55:53.260Z,99836.80
2018-11-23T18:58:28.545Z,99837.73
2018-11-23T19:01:04.390Z,99831.88
2018-11-23T19:03:40.594Z,99832.91
2018-11-23T19:06:15.538Z,99833.72
2018-11-23T19:08:54.476Z,99830.20
2018-11-23T19:11:27.763Z,99826.79
2018-11-23T19:14:04.113Z,99830.69
2018-11-23T19:16:41.605Z,99825.31
2018-11-23T19:19:21.742Z,99824.92
2018-11-23T19:21:55.573Z,99827.92
2018-11-23T19:24:30.585Z,99827.16
2018-11-23T19:27:03.984Z,99820.93
2018-11-23T19:29:41.391Z,99816.95
2018-11-23T19:32:17.808Z,99815.13
2018-11-23T19:34:56.604Z,99817.66
2018-11-23T19:37:30.716Z,99820.58
2018-11-23T19:40:06.951Z,99817.94
2018-11-23T19:42:43.753Z,99817.20
2018-11-23T19:45:18.145Z,99815.30
2018-11-23T19:47:53.227Z,99812.17
2018-11-23T19:50:27.424Z,99812.72
2018-11-23T19:53:03.720Z,99812.91
2018-11-23T19:55:38.678Z,99812.97
2018-11-23T19:58:13.224Z,99815.10
2018-11-23T20:01:02.281Z,99817.20
2018-11-23T20:03:37.460Z,99815.98
2018-11-23T20:06:13.083Z,99810.87
2018-11-23T20:08:52.626Z,99807.73
2018-11-23T20:11:27.534Z,99802.16
2018-11-23T20:14:04.313Z,99800.25
2018-11-23T20:16:41.267Z,99801.80
2018-11-23T20:19:14.297Z,99800.97
2018-11-23T20:21:50.872Z,99791.18
2018-11-23T20:24:27.540Z,99786.51
2018-11-23T20:27:01.523Z,99781.47
2018-11-23T20:29:38.462Z,99791.68
2018-11-23T20:32:20.103Z,99788.16
2018-11-23T20:34:57.302Z,99786.00
2018-11-23T20:37:31.879Z,99780.66
2018-11-23T20:40:10.307Z,99778.52
2018-11-23T20:42:49.657Z,99767.89
2018-11-23T20:45:22.981Z,99768.23
2018-11-23T20:48:06.570Z,99766.07
2018-11-23T20:50:43.210Z,99760.02
2018-11-23T20:53:18.201Z,99759.38
2018-11-23T20:55:53.485Z,99760.62
2018-11-23T20:58:34.030Z,99760.16
2018-11-23T21:01:09.325Z,99757.53
2018-11-23T21:03:43.719Z,99746.91
2018-11-23T21:06:19.147Z,99746.80
2018-11-23T23:45:56.622Z,99631.27
2018-11-23T23:48:32.756Z,99625.67
2018-11-23T23:51:10.494Z,99626.81
2018-11-23T23:54:07.954Z,99620.17
2018-11-23T23:56:53.697Z,99623.24
